Time;durP1;ratioP1;P1;durP2;ratioP2;P2;SDS_P1;SDS_P2;PMS_P1;PMS_P2;Temp;Humidity;BMP_temperature;BMP_pressure;BME280_temperature;BME280_humidity;BME280_pressure;Samples;Min_cycle;Max_cycle;Signal;HPM_P1;HPM_P2
2023/07/24 00:01:09;;;;;;;6.75;2.67;;;;;;;17.28;100.00;100386.03;4993726;28;20050;-74
2023/07/24 00:03:34;;;;;;;3.95;2.90;;;;;;;17.28;100.00;100388.69;5017396;28;20770;-73
2023/07/24 00:06:02;;;;;;;4.20;3.10;;;;;;;17.29;100.00;100382.38;5012235;28;20030;-75
2023/07/24 00:08:28;;;;;;;3.45;3.00;;;;;;;17.30;100.00;100383.19;5032080;28;20037;-74
2023/07/24 00:10:53;;;;;;;4.18;3.38;;;;;;;17.31;100.00;100377.72;5028197;28;20440;-74
2023/07/24 00:13:19;;;;;;;4.55;3.17;;;;;;;17.31;100.00;100379.53;5028776;28;20014;-73
2023/07/24 00:15:44;;;;;;;5.18;3.53;;;;;;;17.30;100.00;100373.38;5028829;28;20060;-74
2023/07/24 00:18:09;;;;;;;5.32;3.45;;;;;;;17.32;100.00;100367.91;4996224;28;20084;-74
2023/07/24 00:20:35;;;;;;;4.88;3.30;;;;;;;17.32;100.00;100366.06;5028689;28;20038;-73
2023/07/24 00:23:00;;;;;;;5.65;3.65;;;;;;;17.32;100.00;100366.06;5026422;28;20022;-74
2023/07/24 00:25:25;;;;;;;5.80;3.83;;;;;;;17.33;100.00;100366.91;5028071;28;20041;-74
2023/07/24 00:27:51;;;;;;;5.72;3.83;;;;;;;17.32;100.00;100360.75;5026125;28;20021;-74
2023/07/24 00:30:16;;;;;;;5.07;3.63;;;;;;;17.31;100.00;100356.44;5028655;28;20112;-74
2023/07/24 00:32:42;;;;;;;7.82;3.80;;;;;;;17.31;100.00;100352.94;5026603;28;20029;-74
2023/07/24 00:35:10;;;;;;;4.47;3.58;;;;;;;17.30;100.00;100351.28;5032396;28;20029;-74
2023/07/24 00:37:35;;;;;;;5.68;4.18;;;;;;;17.28;100.00;100343.47;5032975;28;20176;-74
2023/07/24 00:40:02;;;;;;;9.38;4.07;;;;;;;17.27;100.00;100343.66;5031127;28;20158;-73
2023/07/24 00:42:27;;;;;;;12.88;4.63;;;;;;;17.27;100.00;100341.00;5032870;28;20033;-74
2023/07/24 00:44:53;;;;;;;5.78;4.70;;;;;;;17.27;100.00;100336.50;5031356;28;20076;-74
2023/07/24 00:47:18;;;;;;;5.68;4.03;;;;;;;17.26;100.00;100328.69;5023035;28;20080;-74
2023/07/24 00:49:44;;;;;;;10.05;4.60;;;;;;;17.26;100.00;100334.84;5031632;28;20092;-74
2023/07/24 00:52:11;;;;;;;7.20;4.40;;;;;;;17.25;100.00;100338.50;5009016;28;20026;-74
2023/07/24 00:54:38;;;;;;;5.90;3.95;;;;;;;17.25;100.00;100333.19;5009652;28;20898;-74
2023/07/24 00:57:05;;;;;;;5.00;4.28;;;;;;;17.23;100.00;100324.53;5025281;28;20083;-74
2023/07/24 00:59:31;;;;;;;7.40;4.57;;;;;;;17.24;100.00;100328.88;5014410;28;20025;-74
2023/07/24 01:01:57;;;;;;;8.43;4.75;;;;;;;17.25;100.00;100327.88;5011743;28;20046;-74
2023/07/24 01:04:22;;;;;;;8.18;4.75;;;;;;;17.25;100.00;100316.41;5011813;28;20038;-73
2023/07/24 01:06:48;;;;;;;6.35;4.85;;;;;;;17.25;100.00;100311.91;5011595;28;20022;-75
2023/07/24 01:09:14;;;;;;;9.40;5.90;;;;;;;17.24;100.00;100307.59;4992668;28;20363;-74
2023/07/24 01:11:45;;;;;;;7.15;5.55;;;;;;;17.25;100.00;100317.22;4998008;28;20040;-74
2023/07/24 01:14:29;;;;;;;11.15;5.90;;;;;;;17.27;100.00;100309.09;5010829;28;20518;-73
2023/07/24 01:16:58;;;;;;;7.35;5.38;;;;;;;17.24;100.00;100299.63;5011632;28;20501;-74
2023/07/24 01:19:39;;;;;;;8.63;5.80;;;;;;;17.24;100.00;100299.63;5012109;28;20022;-74
2023/07/24 01:22:07;;;;;;;7.80;5.65;;;;;;;17.22;100.00;100310.41;5011892;28;20068;-74
2023/07/24 01:25:06;;;;;;;10.32;6.10;;;;;;;17.27;100.00;100304.59;5011436;28;20029;-74
2023/07/24 01:27:31;;;;;;;9.18;6.35;;;;;;;17.26;100.00;100302.94;5004459;28;20042;-74
2023/07/24 01:29:57;;;;;;;9.15;6.10;;;;;;;17.26;100.00;100286.97;4996795;28;20473;-73
2023/07/24 01:32:22;;;;;;;9.48;6.75;;;;;;;17.27;100.00;100293.13;5012419;28;20021;-73
2023/07/24 01:34:48;;;;;;;9.93;5.55;;;;;;;17.28;100.00;100294.78;5010979;28;20037;-73
2023/07/24 01:37:14;;;;;;;7.25;5.50;;;;;;;17.26;100.00;100292.28;5011701;28;20490;-73
2023/07/24 01:39:44;;;;;;;6.38;4.60;;;;;;;17.23;100.00;100287.31;5012223;28;20030;-73
2023/07/24 01:42:10;;;;;;;7.30;4.47;;;;;;;17.25;100.00;100289.81;4995052;28;20159;-73
2023/07/24 01:44:35;;;;;;;6.50;4.97;;;;;;;17.25;100.00;100282.66;4989356;28;20504;-73
2023/07/24 01:47:00;;;;;;;8.95;5.10;;;;;;;17.25;100.00;100285.31;5003825;28;20025;-73
2023/07/24 01:49:26;;;;;;;6.68;5.40;;;;;;;17.25;100.00;100272.03;5012002;28;20030;-73
2023/07/24 01:51:51;;;;;;;7.07;5.82;;;;;;;17.26;100.00;100273.69;5011665;28;20104;-73
2023/07/24 01:54:16;;;;;;;7.47;5.78;;;;;;;17.26;100.00;100264.88;5013044;28;20069;-74
2023/07/24 01:56:43;;;;;;;7.05;5.47;;;;;;;17.27;100.00;100263.88;5011799;28;20041;-73
2023/07/24 01:59:09;;;;;;;6.43;5.35;;;;;;;17.24;100.00;100257.06;5011155;28;20026;-73
2023/07/24 02:01:34;;;;;;;8.55;5.28;;;;;;;17.26;100.00;100255.06;4997813;28;20445;-73
2023/07/24 02:04:00;;;;;;;6.20;4.90;;;;;;;17.26;100.00;100254.25;5009715;28;20036;-73
2023/07/24 02:06:25;;;;;;;7.47;4.75;;;;;;;17.24;100.00;100257.06;4992436;28;20617;-73
2023/07/24 02:08:51;;;;;;;8.57;4.80;;;;;;;17.25;100.00;100242.78;5008805;28;20029;-73
2023/07/24 02:11:17;;;;;;;6.25;4.63;;;;;;;17.25;100.00;100237.47;5009629;28;20835;-73
2023/07/24 02:13:46;;;;;;;6.93;4.85;;;;;;;17.25;100.00;100241.94;4992085;28;20022;-73
2023/07/24 02:16:12;;;;;;;7.75;4.28;;;;;;;17.26;100.00;100233.81;5009971;28;20429;-73
2023/07/24 02:18:41;;;;;;;8.13;4.63;;;;;;;17.24;100.00;100235.81;4995640;28;20113;-73
2023/07/24 02:21:09;;;;;;;7.38;4.60;;;;;;;17.25;100.00;100237.47;4994966;28;20026;-73
2023/07/24 02:23:35;;;;;;;7.47;5.30;;;;;;;17.26;100.00;100232.97;5009417;28;20030;-73
2023/07/24 02:26:01;;;;;;;6.43;5.53;;;;;;;17.27;100.00;100242.59;5010077;28;20033;-73
2023/07/24 02:28:26;;;;;;;7.20;5.53;;;;;;;17.29;100.00;100238.78;5010464;28;20025;-73
2023/07/24 02:30:55;;;;;;;7.32;5.30;;;;;;;17.28;100.00;100238.94;5010990;28;20431;-74
2023/07/24 02:33:21;;;;;;;8.98;6.13;;;;;;;17.28;100.00;100237.13;5009874;28;20018;-74
2023/07/24 02:35:47;;;;;;;7.95;6.03;;;;;;;17.29;100.00;100238.78;5004773;28;20037;-73
2023/07/24 02:38:12;;;;;;;8.25;6.10;;;;;;;17.30;100.00;100234.28;5011003;28;20396;-73
2023/07/24 02:40:50;;;;;;;7.85;6.55;;;;;;;17.30;100.00;100252.91;4993519;28;20030;-73
2023/07/24 02:43:15;;;;;;;8.10;6.00;;;;;;;17.31;100.00;100262.53;4995739;28;20014;-73
2023/07/24 02:45:44;;;;;;;11.27;6.25;;;;;;;17.28;100.00;100250.41;4992661;28;20056;-73
2023/07/24 02:48:09;;;;;;;10.02;6.32;;;;;;;17.28;100.00;100236.28;5009929;28;20797;-73
2023/07/24 02:50:35;;;;;;;9.43;6.68;;;;;;;17.25;100.00;100226.00;5010868;28;20033;-73
2023/07/24 02:53:00;;;;;;;8.35;6.63;;;;;;;17.23;100.00;100228.81;4994433;28;20026;-73
2023/07/24 02:55:26;;;;;;;5.82;5.25;;;;;;;17.20;100.00;100229.13;4994213;28;20017;-73
2023/07/24 02:57:51;;;;;;;9.05;6.15;;;;;;;17.18;100.00;100233.81;5010175;28;20117;-73
2023/07/24 03:00:16;;;;;;;5.85;5.20;;;;;;;17.11;100.00;100230.16;5008582;28;20108;-73
2023/07/24 03:02:42;;;;;;;5.30;4.60;;;;;;;17.07;100.00;100242.16;5028537;28;20037;-74
2023/07/24 03:05:10;;;;;;;5.10;4.63;;;;;;;17.04;100.00;100226.53;5029903;28;20437;-73
2023/07/24 03:07:35;;;;;;;5.97;4.40;;;;;;;17.01;100.00;100216.25;5027593;28;20100;-74
2023/07/24 03:10:02;;;;;;;4.78;4.32;;;;;;;16.96;100.00;100211.44;5015119;28;20032;-73
2023/07/24 03:12:27;;;;;;;9.27;4.47;;;;;;;16.93;100.00;100203.81;5010775;28;20049;-73
2023/07/24 03:14:53;;;;;;;5.93;3.78;;;;;;;16.90;100.00;100215.63;5012927;28;20048;-74
2023/07/24 03:17:18;;;;;;;5.15;3.60;;;;;;;16.83;100.00;100227.94;5011351;28;20541;-74
2023/07/24 03:19:43;;;;;;;6.28;4.20;;;;;;;16.79;100.00;100241.69;5030676;28;20083;-74
2023/07/24 03:22:09;;;;;;;3.72;3.30;;;;;;;16.72;100.00;100236.22;5029707;28;20041;-73
2023/07/24 03:24:35;;;;;;;3.58;3.17;;;;;;;16.66;100.00;100231.59;5007791;28;20034;-73
2023/07/24 03:27:00;;;;;;;3.95;3.55;;;;;;;16.64;100.00;100216.78;5027553;28;20033;-74
2023/07/24 03:29:29;;;;;;;3.88;3.47;;;;;;;16.60;100.00;100218.97;5012736;28;20026;-74
2023/07/24 03:31:55;;;;;;;5.75;3.45;;;;;;;16.54;100.00;100216.97;5009975;28;20567;-74
2023/07/24 03:34:20;;;;;;;4.00;3.13;;;;;;;16.52;100.00;100219.78;5009385;28;20036;-73
2023/07/24 03:36:45;;;;;;;4.00;3.40;;;;;;;16.51;100.00;100212.00;5025787;28;20189;-73
2023/07/24 03:39:11;;;;;;;3.50;3.20;;;;;;;16.47;100.00;100202.72;5028581;28;20087;-73
2023/07/24 03:41:38;;;;;;;3.58;3.28;;;;;;;16.46;100.00;100203.72;5022837;28;20025;-73
2023/07/24 03:44:03;;;;;;;4.78;3.50;;;;;;;16.44;100.00;100201.22;5027594;28;20436;-73
2023/07/24 03:46:29;;;;;;;4.10;3.70;;;;;;;16.44;100.00;100197.72;5011604;28;20120;-74
2023/07/24 03:48:54;;;;;;;4.95;4.10;;;;;;;16.42;100.00;100207.69;5028442;28;20034;-74
2023/07/24 03:51:19;;;;;;;4.78;3.70;;;;;;;16.40;100.00;100205.19;5028069;28;20532;-74
2023/07/24 03:53:45;;;;;;;5.03;4.00;;;;;;;16.41;100.00;100200.69;5023940;28;20021;-74
2023/07/24 03:56:10;;;;;;;5.47;4.20;;;;;;;16.42;100.00;100200.56;5023288;28;20112;-73
2023/07/24 03:58:38;;;;;;;4.32;3.85;;;;;;;16.42;100.00;100207.69;5003245;28;20057;-74
2023/07/24 04:01:04;;;;;;;4.50;4.10;;;;;;;16.44;100.00;100211.84;5027926;28;20053;-74
2023/07/24 04:03:29;;;;;;;4.78;4.20;;;;;;;16.44;100.00;100221.63;5028847;28;20493;-74
2023/07/24 04:05:54;;;;;;;4.38;3.90;;;;;;;16.45;100.00;100217.97;5028461;28;20037;-74
2023/07/24 04:08:20;;;;;;;5.55;4.28;;;;;;;16.44;100.00;100226.94;5032867;28;20491;-74
2023/07/24 04:10:45;;;;;;;5.07;4.40;;;;;;;16.43;100.00;100225.28;5035411;28;20052;-73
2023/07/24 04:13:11;;;;;;;6.75;5.10;;;;;;;16.44;100.00;100226.94;5036192;28;20053;-74
2023/07/24 04:15:36;;;;;;;5.22;4.72;;;;;;;16.44;100.00;100233.09;5036600;28;20063;-74
2023/07/24 04:18:03;;;;;;;5.68;4.50;;;;;;;16.42;100.00;100234.25;5032810;28;20507;-73
2023/07/24 04:20:28;;;;;;;6.35;4.65;;;;;;;16.40;100.00;100231.72;5027800;28;20056;-73
2023/07/24 04:22:54;;;;;;;5.57;4.43;;;;;;;16.38;100.00;100224.94;5035312;28;20029;-74
2023/07/24 04:25:19;;;;;;;6.65;5.07;;;;;;;16.36;100.00;100225.09;5017642;28;20397;-74
2023/07/24 04:27:44;;;;;;;6.65;4.82;;;;;;;16.36;100.00;100224.25;5014966;28;20030;-74
2023/07/24 04:30:10;;;;;;;5.13;4.63;;;;;;;16.35;100.00;100228.75;5019632;28;20026;-73
2023/07/24 04:32:35;;;;;;;6.38;4.28;;;;;;;16.33;100.00;100230.75;5035082;28;20121;-74
2023/07/24 04:35:01;;;;;;;5.93;4.50;;;;;;;16.33;100.00;100240.53;5033262;28;20025;-74
2023/07/24 04:37:27;;;;;;;4.97;4.57;;;;;;;16.27;100.00;100237.53;5016911;28;20033;-74
2023/07/24 04:39:52;;;;;;;4.45;4.05;;;;;;;16.23;100.00;100236.22;5035151;28;20488;-74
2023/07/24 04:42:17;;;;;;;5.38;4.03;;;;;;;16.21;100.00;100238.22;5034933;28;20549;-74
2023/07/24 04:44:43;;;;;;;5.80;4.15;;;;;;;16.21;100.00;100232.06;5033165;28;20082;-74
2023/07/24 04:47:08;;;;;;;5.13;4.32;;;;;;;16.14;100.00;100237.22;5034178;28;20645;-74
2023/07/24 04:49:33;;;;;;;6.03;4.82;;;;;;;16.17;100.00;100231.56;5035941;28;20037;-75
2023/07/24 04:51:59;;;;;;;6.93;5.00;;;;;;;16.13;100.00;100235.56;5028768;28;20025;-74
2023/07/24 04:54:25;;;;;;;5.85;4.80;;;;;;;16.09;100.00;100233.41;5031307;28;20491;-74
2023/07/24 04:56:50;;;;;;;5.28;4.78;;;;;;;16.08;100.00;100237.88;5003353;28;20034;-74
2023/07/24 04:59:16;;;;;;;8.15;4.72;;;;;;;16.06;100.00;100226.59;5015149;28;20063;-74
2023/07/24 05:01:42;;;;;;;5.57;4.97;;;;;;;16.09;100.00;100231.56;5020364;28;20068;-74
2023/07/24 05:04:08;;;;;;;5.40;4.90;;;;;;;16.05;100.00;100221.44;5013805;28;20389;-74
2023/07/24 05:06:35;;;;;;;6.10;5.50;;;;;;;16.05;100.00;100222.28;5001920;28;20022;-74
2023/07/24 05:09:01;;;;;;;6.05;5.30;;;;;;;16.08;100.00;100237.88;5029194;28;20075;-74
2023/07/24 05:11:29;;;;;;;6.63;5.20;;;;;;;16.06;100.00;100239.84;5018162;28;20029;-74
2023/07/24 05:13:54;;;;;;;6.00;5.40;;;;;;;16.03;100.00;100245.50;5034872;28;20098;-74
2023/07/24 05:16:20;;;;;;;6.97;6.05;;;;;;;16.01;100.00;100242.19;5034492;28;20116;-74
2023/07/24 05:18:45;;;;;;;6.25;5.68;;;;;;;15.99;100.00;100244.13;5033160;28;20095;-74
2023/07/24 05:21:10;;;;;;;6.18;5.57;;;;;;;16.01;100.00;100246.63;5013222;28;20065;-74
2023/07/24 05:23:36;;;;;;;8.30;6.03;;;;;;;16.00;100.00;100251.09;5032858;28;20056;-74
2023/07/24 05:26:02;;;;;;;7.45;5.57;;;;;;;16.05;100.00;100253.28;5012134;28;20068;-74
2023/07/24 05:28:29;;;;;;;6.72;5.90;;;;;;;16.02;100.00;100253.63;5014016;28;20489;-74
2023/07/24 05:30:55;;;;;;;7.28;6.43;;;;;;;16.04;100.00;100244.50;5045299;28;20029;-74
2023/07/24 05:33:21;;;;;;;8.13;7.07;;;;;;;16.04;100.00;100244.50;5012612;28;20048;-74
2023/07/24 05:35:46;;;;;;;7.50;6.90;;;;;;;16.05;100.00;100243.50;5016577;28;20946;-74
2023/07/24 05:38:11;;;;;;;7.68;7.00;;;;;;;16.11;100.00;100248.16;5031947;28;20036;-74
2023/07/24 05:40:37;;;;;;;9.02;7.07;;;;;;;16.13;100.00;100250.66;5014513;28;20031;-74
2023/07/24 05:43:03;;;;;;;8.20;7.50;;;;;;;16.16;100.00;100248.50;5027455;28;20018;-75
2023/07/24 05:45:29;;;;;;;9.55;7.03;;;;;;;16.16;100.00;100255.63;4978334;28;20034;-74
2023/07/24 05:47:54;;;;;;;8.30;7.60;;;;;;;16.19;100.00;100248.16;5011223;28;20026;-75
2023/07/24 05:50:20;;;;;;;7.68;6.97;;;;;;;16.19;100.00;100257.94;5012092;28;20033;-75
2023/07/24 05:52:45;;;;;;;8.13;7.43;;;;;;;16.21;100.00;100263.91;5016812;28;20560;-74
2023/07/24 05:55:11;;;;;;;7.90;7.20;;;;;;;16.25;100.00;100265.25;5013099;28;20500;-74
2023/07/24 05:57:36;;;;;;;7.10;6.50;;;;;;;16.23;100.00;100268.06;5032004;28;20089;-74
2023/07/24 06:00:03;;;;;;;7.72;6.93;;;;;;;16.25;100.00;100271.38;5027649;28;20040;-74
2023/07/24 06:02:29;;;;;;;8.25;7.40;;;;;;;16.23;100.00;100257.44;5011125;28;20046;-74
2023/07/24 06:04:54;;;;;;;8.35;7.47;;;;;;;16.27;100.00;100264.09;5011768;28;20030;-74
2023/07/24 06:07:19;;;;;;;8.98;7.63;;;;;;;16.35;100.00;100259.78;5036186;28;20024;-74
2023/07/24 06:09:45;;;;;;;12.13;7.70;;;;;;;16.37;100.00;100265.75;5044177;28;20034;-74
2023/07/24 06:12:10;;;;;;;8.30;7.50;;;;;;;16.42;100.00;100264.28;5031570;28;20552;-74
2023/07/24 06:14:35;;;;;;;8.43;7.63;;;;;;;16.52;100.00;100277.41;5031946;28;20521;-74
2023/07/24 06:17:01;;;;;;;7.50;6.80;;;;;;;16.62;100.00;100278.06;5024249;28;20056;-74
2023/07/24 06:19:29;;;;;;;7.30;6.60;;;;;;;16.64;100.00;100280.53;5013043;28;20055;-75
2023/07/24 06:21:55;;;;;;;7.55;6.45;;;;;;;16.72;100.00;100278.75;5012632;28;20040;-75
2023/07/24 06:24:20;;;;;;;6.95;6.28;;;;;;;16.80;100.00;100276.06;5022684;28;20378;-74
2023/07/24 06:26:46;;;;;;;7.15;6.45;;;;;;;16.87;100.00;100273.59;5016727;28;20025;-74
2023/07/24 06:29:11;;;;;;;6.63;5.90;;;;;;;16.92;100.00;100274.75;5029200;28;20504;-74
2023/07/24 06:31:37;;;;;;;6.47;5.88;;;;;;;16.99;100.00;100282.03;5030839;28;20031;-75
2023/07/24 06:34:02;;;;;;;6.93;5.55;;;;;;;17.05;100.00;100273.38;5031154;28;20021;-74
2023/07/24 06:36:28;;;;;;;6.93;5.97;;;;;;;17.04;100.00;100272.56;5013222;28;20029;-75
2023/07/24 06:38:53;;;;;;;6.40;5.80;;;;;;;17.06;100.00;100275.03;5030166;28;20033;-74
2023/07/24 06:41:21;;;;;;;6.60;5.55;;;;;;;17.06;100.00;100275.03;5041760;28;20078;-74
2023/07/24 06:43:46;;;;;;;7.78;5.82;;;;;;;17.00;100.00;100281.03;5024696;28;20033;-74
2023/07/24 06:46:11;;;;;;;6.65;5.50;;;;;;;16.98;100.00;100277.72;5023814;28;20570;-75
2023/07/24 06:48:37;;;;;;;6.28;5.70;;;;;;;16.96;100.00;100274.41;5024951;28;20025;-75
2023/07/24 06:51:02;;;;;;;6.35;5.70;;;;;;;16.96;100.00;100269.91;5012994;28;20041;-75
2023/07/24 06:53:27;;;;;;;6.03;5.43;;;;;;;16.92;100.00;100274.75;5026335;28;20040;-75
2023/07/24 06:55:53;;;;;;;6.28;5.68;;;;;;;16.91;100.00;100281.06;5025362;28;20120;-75
2023/07/24 06:58:18;;;;;;;6.57;5.43;;;;;;;16.87;100.00;100265.63;5030095;28;20025;-77
2023/07/24 07:00:43;;;;;;;6.65;5.20;;;;;;;16.84;100.00;100274.75;5007562;28;20088;-77
2023/07/24 07:03:09;;;;;;;6.55;4.72;;;;;;;16.79;100.00;100269.09;5001153;28;20022;-77
2023/07/24 07:05:34;;;;;;;5.88;5.15;;;;;;;16.76;100.00;100272.09;5017226;28;20144;-76
2023/07/24 07:07:59;;;;;;;5.35;4.85;;;;;;;16.77;100.00;100270.25;4992838;28;20061;-75
2023/07/24 07:10:25;;;;;;;5.70;4.60;;;;;;;16.73;100.00;100269.78;5027363;28;20357;-75
2023/07/24 07:12:50;;;;;;;6.38;4.97;;;;;;;16.69;100.00;100273.75;5028314;28;20484;-75
2023/07/24 07:15:15;;;;;;;5.72;5.13;;;;;;;16.70;100.00;100270.09;5028976;28;20592;-75
2023/07/24 07:17:44;;;;;;;5.38;4.47;;;;;;;16.64;100.00;100275.22;5028865;28;20061;-75
2023/07/24 07:20:12;;;;;;;4.93;4.53;;;;;;;16.63;100.00;100271.75;5026629;28;20032;-75
2023/07/24 07:22:37;;;;;;;4.60;4.20;;;;;;;16.60;100.00;100272.06;5033676;28;20489;-75
2023/07/24 07:25:03;;;;;;;5.07;4.03;;;;;;;16.61;100.00;100269.25;5049829;28;20025;-75
2023/07/24 07:27:28;;;;;;;4.40;4.00;;;;;;;16.64;100.00;100269.91;5048020;28;20020;-75
2023/07/24 07:29:53;;;;;;;3.70;3.40;;;;;;;16.66;100.00;100263.47;5045637;28;20085;-75
2023/07/24 07:32:19;;;;;;;3.90;3.22;;;;;;;16.68;100.00;100269.44;5031203;28;20040;-75
2023/07/24 07:34:44;;;;;;;3.50;3.20;;;;;;;16.83;100.00;100270.44;5040357;28;20486;-74
2023/07/24 07:37:09;;;;;;;3.58;3.28;;;;;;;17.16;100.00;100268.53;5049682;28;20037;-75
2023/07/24 07:39:36;;;;;;;3.45;3.15;;;;;;;17.40;100.00;100266.81;5031918;28;20028;-75
2023/07/24 07:42:01;;;;;;;3.63;3.33;;;;;;;17.54;100.00;100272.22;5047964;28;20930;-74
2023/07/24 07:44:26;;;;;;;4.07;3.10;;;;;;;17.74;100.00;100264.72;5030956;28;20025;-74
2023/07/24 07:46:52;;;;;;;3.72;3.17;;;;;;;17.89;100.00;100262.13;5049666;28;20032;-75
2023/07/24 07:49:17;;;;;;;3.35;2.90;;;;;;;17.96;100.00;100259.59;5030506;28;20063;-75
2023/07/24 07:51:45;;;;;;;3.90;3.50;;;;;;;17.88;100.00;100264.97;5040455;28;20120;-75
2023/07/24 07:54:10;;;;;;;4.00;3.60;;;;;;;18.00;100.00;100267.03;5038356;28;20037;-75
2023/07/24 07:56:36;;;;;;;4.57;3.90;;;;;;;17.99;100.00;100265.38;5044570;28;20012;-75
2023/07/24 07:59:01;;;;;;;4.15;3.75;;;;;;;18.09;100.00;100258.03;5045862;28;20039;-75
2023/07/24 08:01:27;;;;;;;4.43;3.85;;;;;;;18.17;100.00;100263.28;5024909;28;20112;-75
2023/07/24 08:03:52;;;;;;;4.60;3.65;;;;;;;18.22;100.00;100267.25;5005399;28;20033;-75
2023/07/24 08:06:17;;;;;;;4.35;3.78;;;;;;;18.16;100.00;100264.28;5025742;28;20025;-75
2023/07/24 08:08:45;;;;;;;5.35;4.18;;;;;;;18.11;100.00;100268.50;5023479;28;20030;-75
2023/07/24 08:11:11;;;;;;;4.65;4.13;;;;;;;18.02;100.00;100262.41;5004154;28;20026;-75
2023/07/24 08:13:36;;;;;;;5.72;4.78;;;;;;;18.02;100.00;100266.91;5010323;28;20041;-75
2023/07/24 08:16:03;;;;;;;7.85;4.53;;;;;;;18.01;100.00;100263.41;5016334;28;20045;-75
2023/07/24 08:18:29;;;;;;;5.68;4.65;;;;;;;18.01;100.00;100263.41;5028194;28;20397;-74
2023/07/24 08:20:55;;;;;;;7.82;5.60;;;;;;;17.97;100.00;100256.75;5012518;28;20503;-74
2023/07/24 08:23:20;;;;;;;7.13;5.40;;;;;;;18.04;100.00;100255.06;5014148;28;20133;-75
2023/07/24 08:25:55;;;;;;;6.43;5.32;;;;;;;18.26;100.00;100255.25;5011355;28;20481;-75
2023/07/24 08:28:21;;;;;;;5.85;5.28;;;;;;;18.22;100.00;100259.25;5010271;28;20075;-74
2023/07/24 08:30:56;;;;;;;6.10;5.53;;;;;;;18.24;100.00;100257.25;4993910;28;20234;-75
2023/07/24 08:33:21;;;;;;;8.20;5.55;;;;;;;18.19;100.00;100256.97;5008687;28;20369;-74
2023/07/24 08:35:47;;;;;;;8.70;6.32;;;;;;;18.25;100.00;100256.25;5007812;28;20038;-74
2023/07/24 08:38:12;;;;;;;7.90;6.00;;;;;;;18.34;100.00;100253.34;5028207;28;20432;-74
2023/07/24 08:40:39;;;;;;;8.50;6.03;;;;;;;18.30;100.00;100259.19;5011959;28;20096;-75
2023/07/24 08:43:04;;;;;;;8.00;5.85;;;;;;;18.29;100.00;100263.69;5002428;28;20080;-74
2023/07/24 08:45:31;;;;;;;6.40;5.70;;;;;;;18.31;100.00;100264.34;4989227;28;20057;-75
2023/07/24 08:47:58;;;;;;;6.57;5.97;;;;;;;18.26;100.00;100260.56;4995117;28;20121;-75
2023/07/24 08:50:24;;;;;;;6.40;5.80;;;;;;;18.20;100.00;100258.63;5029281;28;20545;-75
2023/07/24 08:52:50;;;;;;;8.18;5.95;;;;;;;18.24;100.00;100257.25;4998136;28;20025;-75
2023/07/24 08:55:16;;;;;;;7.57;6.07;;;;;;;18.26;100.00;100257.91;4994550;28;20022;-74
2023/07/24 08:57:44;;;;;;;8.57;6.13;;;;;;;18.16;100.00;100252.81;5030720;28;20031;-75
2023/07/24 09:00:10;;;;;;;7.20;6.50;;;;;;;18.12;100.00;100247.03;5022336;28;20030;-75
2023/07/24 09:02:35;;;;;;;7.10;6.10;;;;;;;18.09;100.00;100243.88;5022924;28;20091;-74
2023/07/24 09:05:02;;;;;;;7.80;6.20;;;;;;;18.10;100.00;100246.38;5042228;28;20235;-75
2023/07/24 09:07:29;;;;;;;6.90;6.13;;;;;;;18.13;100.00;100240.69;5045159;28;20551;-74
2023/07/24 09:09:54;;;;;;;7.15;6.13;;;;;;;18.24;100.00;100223.47;5031902;28;20078;-75
2023/07/24 09:12:23;;;;;;;8.77;6.70;;;;;;;18.47;100.00;100229.59;5033379;28;20021;-75
2023/07/24 09:14:48;;;;;;;8.65;6.07;;;;;;;18.63;100.00;100223.31;5035043;28;20454;-75
2023/07/24 09:17:14;;;;;;;8.10;6.38;;;;;;;18.69;100.00;100222.59;5046264;28;20044;-75
2023/07/24 09:19:39;;;;;;;5.20;4.70;;;;;;;18.81;100.00;100219.47;5018584;28;20026;-75
2023/07/24 09:22:15;;;;;;;4.70;3.88;;;;;;;19.16;100.00;100223.28;5031669;28;20021;-76
2023/07/24 09:24:55;;;;;;;6.20;4.00;;;;;;;19.46;100.00;100214.25;5041223;28;20029;-75
2023/07/24 09:27:24;;;;;;;4.15;3.80;;;;;;;19.35;100.00;100212.88;5047518;28;20032;-76
2023/07/24 09:29:50;;;;;;;4.47;3.80;;;;;;;19.30;100.00;100215.28;5046717;28;20025;-76
2023/07/24 09:32:23;;;;;;;3.65;3.33;;;;;;;19.12;100.00;100211.31;5033893;28;20048;-75
2023/07/24 09:34:50;;;;;;;3.50;3.20;;;;;;;19.00;100.00;100205.63;5041705;28;20064;-76
2023/07/24 09:37:34;;;;;;;3.30;3.00;;;;;;;19.07;100.00;100194.03;5032812;28;20107;-76
2023/07/24 09:39:59;;;;;;;4.25;3.22;;;;;;;19.04;100.00;100183.75;5033011;28;20027;-76
2023/07/24 09:42:34;;;;;;;3.92;3.47;;;;;;;19.09;100.00;100180.53;5051558;28;20021;-74
2023/07/24 09:45:01;;;;;;;3.63;3.20;;;;;;;19.09;100.00;100191.19;5036933;28;20489;-75
2023/07/24 09:47:26;;;;;;;3.53;3.22;;;;;;;19.12;100.00;100190.81;5050970;28;20040;-75
2023/07/24 09:49:55;;;;;;;3.55;3.25;;;;;;;19.05;100.00;100171.25;5051211;28;20412;-75
2023/07/24 09:52:21;;;;;;;3.83;3.42;;;;;;;18.90;100.00;100171.25;5015565;28;20022;-75
2023/07/24 09:54:59;;;;;;;4.03;3.63;;;;;;;18.84;100.00;100166.66;5022335;28;20112;-75
2023/07/24 09:57:26;;;;;;;4.05;3.58;;;;;;;18.73;100.00;100170.59;5046375;28;20025;-75
2023/07/24 09:59:53;;;;;;;4.30;3.90;;;;;;;18.75;100.00;100160.56;5043618;28;20464;-75
2023/07/24 10:02:19;;;;;;;4.20;3.80;;;;;;;18.70;100.00;100160.28;5014463;28;20045;-75
2023/07/24 10:04:46;;;;;;;4.43;4.03;;;;;;;18.61;100.00;100156.03;5037596;28;20087;-75
2023/07/24 10:07:13;;;;;;;3.80;3.50;;;;;;;18.63;100.00;100179.88;5032339;28;20016;-75
2023/07/24 10:09:39;;;;;;;4.18;3.78;;;;;;;18.51;100.00;100171.47;5024616;28;20033;-75
2023/07/24 10:12:05;;;;;;;4.40;4.00;;;;;;;18.41;100.00;100192.19;5016301;28;20021;-75
2023/07/24 10:14:31;;;;;;;4.10;3.70;;;;;;;18.40;100.00;100185.19;5027291;28;20389;-74
2023/07/24 10:16:57;;;;;;;4.10;3.70;;;;;;;18.33;100.00;100186.94;5027318;28;20078;-75
2023/07/24 10:19:22;;;;;;;4.13;3.72;;;;;;;18.31;100.00;100180.97;5017450;28;20500;-75
2023/07/24 10:21:48;;;;;;;4.45;4.05;;;;;;;18.21;100.00;100191.03;5045563;28;20040;-75
2023/07/24 10:24:17;;;;;;;4.43;3.95;;;;;;;18.11;100.00;100197.44;5046462;28;20028;-75
2023/07/24 10:26:43;;;;;;;4.28;3.88;;;;;;;18.04;100.00;100196.50;5026255;28;20025;-77
2023/07/24 10:29:12;;;;;;;4.38;3.95;;;;;;;17.93;100.00;100196.06;5031557;28;20116;-75
2023/07/24 10:31:38;;;;;;;4.70;4.30;;;;;;;17.94;100.00;100190.56;5035564;28;20071;-75
2023/07/24 10:34:09;;;;;;;4.53;4.13;;;;;;;18.02;100.00;100198.50;5045728;28;20017;-75
2023/07/24 10:36:38;;;;;;;4.95;4.45;;;;;;;18.03;100.00;100189.53;5049394;28;20044;-75
2023/07/24 10:39:13;;;;;;;4.90;4.50;;;;;;;18.14;100.00;100191.75;5032897;28;20021;-75
2023/07/24 10:41:39;;;;;;;5.22;4.70;;;;;;;18.19;100.00;100183.22;5028924;28;20366;-76
2023/07/24 10:44:05;;;;;;;5.03;4.63;;;;;;;18.28;100.00;100197.28;5025953;28;20377;-77
2023/07/24 10:46:44;;;;;;;6.20;5.05;;;;;;;18.44;100.00;100207.84;5047741;28;20013;-76
2023/07/24 10:49:09;;;;;;;5.55;5.00;;;;;;;18.55;100.00;100217.22;5028069;28;20040;-76
2023/07/24 10:51:37;;;;;;;5.05;4.65;;;;;;;18.59;100.00;100222.00;5018674;28;20021;-76
2023/07/24 10:54:04;;;;;;;4.97;4.47;;;;;;;18.60;100.00;100215.66;5042734;28;20477;-76
2023/07/24 10:56:29;;;;;;;5.40;4.30;;;;;;;18.58;100.00;100208.88;5014088;28;20025;-74
2023/07/24 10:58:55;;;;;;;4.40;4.00;;;;;;;18.68;100.00;100202.28;5017500;28;20488;-77
2023/07/24 11:01:20;;;;;;;4.70;4.30;;;;;;;18.64;100.00;100210.81;5035318;28;20556;-77
2023/07/24 11:03:46;;;;;;;4.80;4.30;;;;;;;18.72;100.00;100216.06;5025607;28;20326;-76
2023/07/24 11:06:14;;;;;;;5.13;4.63;;;;;;;18.84;100.00;100219.16;5043313;28;20052;-76
2023/07/24 11:08:40;;;;;;;4.68;4.30;;;;;;;19.00;100.00;100213.63;5040447;28;20036;-77
2023/07/24 11:11:08;;;;;;;5.30;4.80;;;;;;;19.05;100.00;100217.41;5031738;28;20024;-76
2023/07/24 11:13:34;;;;;;;6.45;4.50;;;;;;;19.09;100.00;100217.84;5043573;28;20078;-76